SBOSBO POS / TTPP
Speedbird OnlineSpeedbird Online POS / TTPP

Piarco International Airport
11:13 31.5°C

Location Port-of-spain, Trinidad and Tobago
Latitude: 10.595399856567383
Longitude: -61.33720016479492
Local Time 11:13 on 17 Apr 2024
UTC -4 hours (America/Port_of_Spain)
Currency £1 equals TTD 8.47
METAR TTPP 171400Z 10011KT 9999 SCT020 31/25 Q1013 NOSIG
TAF TAF TTPP 171000Z 1712/1812 11015KT 9999 SCT020 TEMPO 1716/1720 11015G25KT 7000 SHRA BKN016 BECMG 1723/1801 11005KT FEW016
Weather As Of 17 Apr 2024 11:13
Description Overcast clouds
Wind 16 km/h from North-East (58°)
Cloud Cover 96%
Precipitation Rain: none, Snow: none
Sunrise 05:53
Sunset 18:16
NOTAM 13 active NOTAM
Rotations During the last 90 days there were
34 flights from LGW
35 flights to LGW
Lounges VIP Flyers Club, Main Terminal
Web Wikipedia
Codes IATA: POS
ICAO: TTPP
Altitude 18 Meter / 58 Feet
Distance 7,133 KM / 4,432 Miles
from London.
Runways
RunwayLength (m)Surface
103200Asphalt
283200Asphalt
Radio
TypeDescriptionFrequency
ACCACC123.7
APPAPP119
ATISATIS126.7
GNDGND121.9
MISCAPRON121.75
RDORDO552.6
TWRTWR118.1
Live ATC



Support Speedbird Online

© 2017-2024 Speedbird Online